createdAt,value
2022-12-13T07:41:26.903Z,14.2
2022-12-13T07:44:28.654Z,15.6
2022-12-13T07:48:50.478Z,14.4
2022-12-13T07:51:52.462Z,15.4
2022-12-13T07:54:54.445Z,15.1
2022-12-13T07:57:56.383Z,16.7
2022-12-13T08:00:58.358Z,17.7
2022-12-13T08:04:00.310Z,16
2022-12-13T08:07:02.289Z,16.5
2022-12-13T08:10:04.371Z,17.5
2022-12-13T08:13:06.235Z,15.8
2022-12-13T08:16:26.936Z,16.5
2022-12-13T08:19:10.139Z,16.9
2022-12-13T08:22:14.061Z,16.9
2022-12-13T08:25:14.070Z,16.3
2022-12-13T08:28:16.032Z,15.9
2022-12-13T08:31:18.009Z,16
2022-12-13T08:34:19.951Z,17
2022-12-13T08:37:21.927Z,14.7
2022-12-13T08:40:23.889Z,15.8
2022-12-13T08:43:25.919Z,17
2022-12-13T08:46:27.861Z,15.8
2022-12-13T08:49:29.761Z,15.6
2022-12-13T08:52:31.767Z,17.3
2022-12-13T08:55:33.688Z,16.8
2022-12-13T08:58:35.637Z,18.7
2022-12-13T09:01:37.626Z,16.9
2022-12-13T09:04:39.557Z,19.4
2022-12-13T09:07:41.526Z,18
2022-12-13T09:10:43.482Z,18.2
2022-12-13T09:13:45.448Z,17.2
2022-12-13T09:16:50.698Z,16.8
2022-12-13T09:19:49.418Z,17.4
2022-12-13T09:22:51.357Z,15.9
2022-12-13T09:25:53.300Z,17.9
2022-12-13T09:28:55.270Z,14.6
2022-12-13T09:31:57.270Z,13.3
2022-12-13T09:34:59.208Z,16.1
2022-12-13T09:38:01.160Z,16.3
2022-12-13T09:41:03.117Z,16.2
2022-12-13T09:44:05.096Z,16.1
2022-12-13T09:47:13.756Z,17.5
2022-12-13T09:50:14.637Z,16.3
2022-12-13T09:53:11.832Z,16.7
2022-12-13T09:56:12.913Z,16
2022-12-13T09:59:14.884Z,15.4
2022-12-13T10:02:16.905Z,16
2022-12-13T10:05:22.074Z,15.8
2022-12-13T10:08:20.750Z,17.4
2022-12-13T10:11:22.710Z,16.2
2022-12-13T10:14:24.693Z,15.8
2022-12-13T10:17:26.757Z,15
2022-12-13T10:20:28.787Z,15.4
2022-12-13T10:23:38.967Z,13.3
2022-12-13T10:26:32.862Z,14.1
2022-12-13T10:29:34.793Z,13.6
2022-12-13T10:32:37.696Z,14.6
2022-12-13T10:35:38.839Z,14.5
2022-12-13T10:38:41.534Z,14.8
2022-12-13T10:41:43.267Z,14.8
2022-12-13T10:44:45.237Z,14.8
2022-12-13T10:47:47.256Z,14.6
2022-12-13T10:50:49.246Z,15.2
2022-12-13T10:53:51.226Z,13.8
2022-12-13T10:56:53.341Z,13.8
2022-12-13T10:59:55.288Z,15.1
2022-12-13T11:02:57.392Z,15.2
2022-12-13T11:05:59.233Z,14.2
2022-12-13T11:09:01.618Z,13.3
2022-12-13T11:12:03.197Z,12.5
2022-12-13T11:15:05.146Z,11.5
2022-12-13T11:18:07.138Z,13.1
2022-12-13T11:21:09.154Z,11.6
2022-12-13T11:24:11.126Z,11
2022-12-13T11:27:13.069Z,15.3
2022-12-13T11:30:15.105Z,15.7
2022-12-13T11:33:17.015Z,14.8
2022-12-13T11:36:18.970Z,13.3
2022-12-13T11:39:20.940Z,14.1
2022-12-13T11:42:22.886Z,15.3
2022-12-13T11:45:24.843Z,13.5
2022-12-13T11:48:27.139Z,15.1
2022-12-13T11:51:28.795Z,13.3
2022-12-13T11:54:30.739Z,14
2022-12-13T11:57:32.705Z,15.8
2022-12-13T12:00:35.283Z,14.8
2022-12-13T12:03:36.806Z,14.3
2022-12-13T12:06:38.593Z,14.6
2022-12-13T12:09:40.531Z,12.9
2022-12-13T12:12:42.491Z,12.9
2022-12-13T12:15:44.487Z,15
2022-12-13T12:18:46.419Z,14.1
2022-12-13T12:22:13.080Z,14.7
2022-12-13T12:24:50.347Z,13.6
2022-12-13T12:27:52.327Z,13.2
2022-12-13T12:30:54.325Z,12.9
2022-12-13T12:33:56.236Z,11.5
2022-12-13T12:36:58.300Z,12.2
2022-12-13T12:40:00.238Z,12.8
2022-12-13T12:43:15.226Z,12.6
2022-12-13T12:46:04.193Z,12.2
2022-12-13T12:49:06.413Z,14
2022-12-13T12:52:08.094Z,12.4
2022-12-13T12:55:10.057Z,11
2022-12-13T12:58:12.015Z,11.7
2022-12-13T13:01:14.073Z,12.4
2022-12-13T13:04:22.046Z,12.1
2022-12-13T13:07:22.815Z,11.6
2022-12-13T13:10:25.988Z,12.6
2022-12-13T13:13:32.660Z,14.4
2022-12-13T13:16:23.809Z,13.7
2022-12-13T13:19:26.073Z,13.8
2022-12-13T13:22:31.031Z,10.9
2022-12-13T13:25:29.770Z,14.4
2022-12-13T13:28:31.724Z,11.3
2022-12-13T13:31:33.773Z,11.7
2022-12-13T13:34:35.773Z,11.3
2022-12-13T13:37:37.824Z,13.7
2022-12-13T13:40:39.795Z,11.1
2022-12-13T13:43:41.812Z,13.5
2022-12-13T13:46:43.775Z,12.6
2022-12-13T13:49:45.687Z,12.6
2022-12-13T13:52:47.643Z,16.2
2022-12-13T13:55:49.614Z,14.6
2022-12-13T13:58:51.588Z,12.9
2022-12-13T14:01:56.925Z,13.5
2022-12-13T14:04:55.516Z,14.1
2022-12-13T14:07:57.477Z,13.2
2022-12-13T14:10:59.502Z,13.1
2022-12-13T14:14:01.465Z,14.8
2022-12-13T14:17:03.410Z,13.4
2022-12-13T14:20:05.442Z,14.9
2022-12-13T14:23:07.342Z,15
2022-12-13T14:26:09.302Z,13.6
2022-12-13T14:29:11.264Z,14.8
2022-12-13T14:32:25.912Z,16.2
2022-12-13T14:35:25.077Z,15.9
2022-12-13T14:38:17.155Z,14.5
2022-12-13T14:41:19.094Z,14.1
2022-12-13T14:44:21.057Z,13.9
2022-12-13T14:47:23.030Z,14.5
2022-12-13T14:50:24.984Z,14.7
2022-12-13T14:53:27.519Z,15.7
2022-12-13T14:56:29.312Z,15
2022-12-13T14:59:30.876Z,14.1
2022-12-13T15:02:32.853Z,14.2
2022-12-13T15:05:34.803Z,14.9
2022-12-13T15:08:36.738Z,14.7
2022-12-13T15:11:38.698Z,14.7
2022-12-13T15:14:40.660Z,15.1
2022-12-13T15:17:42.626Z,15.2
2022-12-13T15:20:44.593Z,13.8
2022-12-13T15:23:48.959Z,14.8
2022-12-13T15:26:48.494Z,14.4
2022-12-13T15:29:50.463Z,14.5
2022-12-13T15:32:52.420Z,14.9
2022-12-13T15:35:54.391Z,13
2022-12-13T15:38:56.344Z,14.3
2022-12-13T15:41:58.314Z,14.6
2022-12-13T15:45:00.264Z,13.1
2022-12-13T15:48:02.245Z,14.1
2022-12-13T15:51:04.184Z,15.9
2022-12-13T15:54:06.168Z,12.8
2022-12-13T15:57:08.108Z,12.7
2022-12-13T16:00:10.157Z,15.1
2022-12-13T16:03:12.139Z,15.1
2022-12-13T16:06:13.984Z,13.5
2022-12-13T16:09:15.946Z,12.5
2022-12-13T16:12:17.904Z,13.4
2022-12-13T16:15:20.652Z,12.2
2022-12-13T16:18:26.474Z,13.6
2022-12-13T16:21:23.769Z,12.2
2022-12-13T16:24:25.730Z,11.9
2022-12-13T16:27:27.698Z,12.2
2022-12-13T16:30:29.647Z,12.9
2022-12-13T16:33:31.764Z,13.5
2022-12-13T16:36:33.566Z,14.1
2022-12-13T16:39:35.611Z,11.7
2022-12-13T16:42:37.501Z,11.9
2022-12-13T16:45:42.154Z,11.7
2022-12-13T16:48:41.415Z,13.3
2022-12-13T16:51:47.990Z,11.8
2022-12-13T16:54:45.332Z,13.1
2022-12-13T16:57:47.293Z,13.5
2022-12-13T17:00:49.267Z,11.9
2022-12-13T17:03:51.212Z,11
2022-12-13T17:06:54.708Z,9.6
2022-12-13T17:09:55.129Z,9.5
2022-12-13T17:12:57.080Z,9.7
2022-12-13T17:15:59.548Z,8.1
2022-12-13T17:19:01.001Z,8.2
2022-12-13T17:22:02.947Z,8
2022-12-13T17:25:04.926Z,8.5
2022-12-13T17:28:06.873Z,8.7
2022-12-13T17:31:08.895Z,7.9
2022-12-13T17:34:10.806Z,9.6
2022-12-13T17:37:12.753Z,9.2
2022-12-13T17:40:14.704Z,9.2
2022-12-13T17:43:24.247Z,7.8
2022-12-13T17:46:18.698Z,9.6
2022-12-13T17:49:20.594Z,9.1
2022-12-13T17:52:22.550Z,8.7
2022-12-13T17:55:24.518Z,8.9
2022-12-13T17:58:26.849Z,8.9
2022-12-13T18:01:28.482Z,10.1
2022-12-13T18:04:30.398Z,7.5
2022-12-13T18:07:32.352Z,8.4
2022-12-13T18:10:34.320Z,8
2022-12-13T18:13:36.286Z,9.6
2022-12-13T18:16:39.067Z,10.4
2022-12-13T18:19:40.209Z,8.8
2022-12-13T18:22:44.788Z,8.6
2022-12-13T18:25:44.138Z,8.2
2022-12-13T18:28:46.078Z,9.3
2022-12-13T18:31:48.037Z,10.1
2022-12-13T18:34:50.003Z,9.1
2022-12-13T18:37:51.958Z,8.9
2022-12-13T18:40:53.912Z,10.2
2022-12-13T18:43:55.887Z,10.8
2022-12-13T18:46:57.870Z,10.6
2022-12-13T18:49:59.784Z,12.9
2022-12-13T18:53:01.741Z,12.9
2022-12-13T18:56:03.701Z,12
2022-12-13T18:59:05.651Z,12.7
2022-12-13T19:02:07.617Z,10.3
2022-12-13T19:05:09.583Z,12.4
2022-12-13T19:08:11.555Z,11.6
2022-12-13T19:11:13.507Z,13
2022-12-13T19:14:15.469Z,12.1
2022-12-13T19:17:17.433Z,12.2
2022-12-13T19:20:19.474Z,13.4
2022-12-13T19:23:21.403Z,13.2
2022-12-13T19:26:23.371Z,13.9
2022-12-13T19:29:25.327Z,14.5
2022-12-13T19:32:30.497Z,13.4
2022-12-13T19:35:32.444Z,13.7
2022-12-13T19:38:34.401Z,13.1
2022-12-13T19:41:36.689Z,12
2022-12-13T19:44:38.908Z,14
2022-12-13T19:47:41.001Z,12.9
2022-12-13T19:50:42.965Z,14.1
2022-12-13T19:53:44.944Z,13.7
2022-12-13T19:56:46.892Z,13.3
2022-12-13T19:59:49.012Z,14.1
2022-12-13T20:02:51.034Z,12.4
2022-12-13T20:05:53.128Z,14.4
2022-12-13T20:08:55.058Z,12.3
2022-12-13T20:11:57.032Z,13.7
2022-12-13T20:14:59.001Z,12.4
2022-12-13T20:18:00.957Z,15.1
2022-12-13T20:21:11.413Z,15.5
2022-12-13T20:24:04.893Z,14
2022-12-13T20:27:06.847Z,16
2022-12-13T20:30:08.821Z,16.1
2022-12-13T20:33:10.794Z,17.2
2022-12-13T20:36:23.949Z,16.5
2022-12-13T20:39:14.720Z,13
2022-12-13T20:42:16.672Z,15.6
2022-12-13T20:45:18.625Z,15.7
2022-12-13T20:48:20.587Z,16.8
2022-12-13T20:51:22.541Z,16.6
2022-12-13T20:54:24.511Z,15.8
2022-12-13T20:57:26.456Z,16
2022-12-13T21:00:28.492Z,15.8
2022-12-13T21:03:30.381Z,15.5
2022-12-13T21:06:32.345Z,15.2
2022-12-13T21:09:34.291Z,14
2022-12-13T21:12:36.245Z,15.4
2022-12-13T21:15:38.222Z,14
2022-12-13T21:18:40.180Z,15.1
2022-12-13T21:21:42.120Z,16.1
2022-12-13T21:24:44.152Z,15.8
2022-12-13T21:27:46.036Z,14.8
2022-12-13T21:30:48.022Z,15
2022-12-13T21:33:49.981Z,13.8
2022-12-13T21:36:52.027Z,14.2
2022-12-13T21:39:53.939Z,15.6
2022-12-13T21:42:55.904Z,12.7
2022-12-13T21:45:57.905Z,12.7
2022-12-13T21:48:59.851Z,11.8
2022-12-13T21:52:01.815Z,11.9
2022-12-13T21:55:30.239Z,12.3
2022-12-13T21:58:07.843Z,12.7
2022-12-13T22:01:07.925Z,14.1
2022-12-13T22:04:09.664Z,11.6
2022-12-13T22:07:11.638Z,12.4
2022-12-13T22:10:13.586Z,12.7
2022-12-13T22:13:15.564Z,11.8
2022-12-13T22:16:17.549Z,13.2
2022-12-13T22:19:19.504Z,12.7
2022-12-13T22:22:21.470Z,12.2
2022-12-13T22:25:23.442Z,11.9
2022-12-13T22:28:25.693Z,10.8
2022-12-13T22:31:29.789Z,11.5
2022-12-13T22:34:29.308Z,12.4
2022-12-13T22:37:31.269Z,12.3
2022-12-13T22:40:33.356Z,10.7
2022-12-13T22:43:35.208Z,11
2022-12-13T22:46:37.152Z,11.4
2022-12-13T22:49:39.122Z,10.7
2022-12-13T22:52:41.075Z,11.6
2022-12-13T22:55:43.036Z,11
2022-12-13T22:58:45.002Z,10.9
2022-12-13T23:01:47.022Z,11.3
2022-12-13T23:04:48.906Z,10.1
2022-12-13T23:07:50.860Z,10
2022-12-13T23:10:52.825Z,10.3
2022-12-13T23:13:54.804Z,8.9
2022-12-13T23:16:56.784Z,9.9
2022-12-13T23:19:58.690Z,8.8
2022-12-13T23:23:00.657Z,10.1
2022-12-13T23:26:02.609Z,10.2
2022-12-13T23:29:04.584Z,9.3
2022-12-13T23:32:06.523Z,11.9
2022-12-13T23:35:08.491Z,11.4
2022-12-13T23:38:10.508Z,10.3
2022-12-13T23:41:12.405Z,11.5
2022-12-13T23:44:14.381Z,12.3
2022-12-13T23:47:16.317Z,11.3
2022-12-13T23:50:18.284Z,10.3
2022-12-13T23:53:20.251Z,10.2
2022-12-13T23:56:22.202Z,8.9
2022-12-13T23:59:24.183Z,9.8
